sensor_id;sensor_type;location;lat;lon;timestamp;P1;durP1;ratioP1;P2;durP2;ratioP2
23175;SDS011;19910;42.652;23.332;2023-06-26T00:00:34;19.88;;;14.02;;
23175;SDS011;19910;42.652;23.332;2023-06-26T00:03:02;20.95;;;13.65;;
23175;SDS011;19910;42.652;23.332;2023-06-26T00:05:29;19.17;;;12.38;;
23175;SDS011;19910;42.652;23.332;2023-06-26T00:07:55;22.50;;;13.55;;
23175;SDS011;19910;42.652;23.332;2023-06-26T00:10:25;20.92;;;13.25;;
23175;SDS011;19910;42.652;23.332;2023-06-26T00:12:52;16.48;;;11.82;;
23175;SDS011;19910;42.652;23.332;2023-06-26T00:15:20;19.98;;;12.52;;
23175;SDS011;19910;42.652;23.332;2023-06-26T00:17:47;19.08;;;12.73;;
23175;SDS011;19910;42.652;23.332;2023-06-26T00:20:15;21.55;;;11.55;;
23175;SDS011;19910;42.652;23.332;2023-06-26T00:22:44;21.85;;;12.80;;
23175;SDS011;19910;42.652;23.332;2023-06-26T00:25:11;21.05;;;12.43;;
23175;SDS011;19910;42.652;23.332;2023-06-26T00:27:38;14.07;;;8.13;;
23175;SDS011;19910;42.652;23.332;2023-06-26T00:30:05;17.13;;;11.30;;
23175;SDS011;19910;42.652;23.332;2023-06-26T00:32:33;16.00;;;10.98;;
23175;SDS011;19910;42.652;23.332;2023-06-26T00:35:00;17.48;;;10.65;;
23175;SDS011;19910;42.652;23.332;2023-06-26T00:37:27;13.07;;;8.02;;
23175;SDS011;19910;42.652;23.332;2023-06-26T00:39:54;19.25;;;11.15;;
23175;SDS011;19910;42.652;23.332;2023-06-26T00:42:20;19.58;;;10.95;;
23175;SDS011;19910;42.652;23.332;2023-06-26T00:44:47;16.85;;;11.23;;
23175;SDS011;19910;42.652;23.332;2023-06-26T00:47:14;19.15;;;10.43;;
23175;SDS011;19910;42.652;23.332;2023-06-26T00:49:44;17.73;;;10.90;;
23175;SDS011;19910;42.652;23.332;2023-06-26T00:52:10;16.98;;;10.80;;
23175;SDS011;19910;42.652;23.332;2023-06-26T00:54:37;15.95;;;10.13;;
23175;SDS011;19910;42.652;23.332;2023-06-26T00:57:04;16.52;;;10.45;;
23175;SDS011;19910;42.652;23.332;2023-06-26T00:59:31;17.30;;;10.85;;
23175;SDS011;19910;42.652;23.332;2023-06-26T01:01:58;15.05;;;9.70;;
23175;SDS011;19910;42.652;23.332;2023-06-26T01:04:25;15.77;;;10.23;;
23175;SDS011;19910;42.652;23.332;2023-06-26T01:06:54;13.60;;;9.32;;
23175;SDS011;19910;42.652;23.332;2023-06-26T01:09:22;15.05;;;10.00;;
23175;SDS011;19910;42.652;23.332;2023-06-26T01:11:49;13.55;;;8.95;;
23175;SDS011;19910;42.652;23.332;2023-06-26T01:14:16;13.35;;;9.30;;
23175;SDS011;19910;42.652;23.332;2023-06-26T01:16:43;16.35;;;9.68;;
23175;SDS011;19910;42.652;23.332;2023-06-26T01:19:13;15.60;;;9.40;;
23175;SDS011;19910;42.652;23.332;2023-06-26T01:21:49;18.40;;;9.98;;
23175;SDS011;19910;42.652;23.332;2023-06-26T01:24:23;16.58;;;10.02;;
23175;SDS011;19910;42.652;23.332;2023-06-26T01:26:59;15.07;;;10.38;;
23175;SDS011;19910;42.652;23.332;2023-06-26T01:29:28;16.52;;;9.77;;
23175;SDS011;19910;42.652;23.332;2023-06-26T01:31:59;13.63;;;9.23;;
23175;SDS011;19910;42.652;23.332;2023-06-26T01:34:26;14.18;;;9.15;;
23175;SDS011;19910;42.652;23.332;2023-06-26T01:36:53;16.52;;;9.38;;
23175;SDS011;19910;42.652;23.332;2023-06-26T01:39:20;15.15;;;11.02;;
23175;SDS011;19910;42.652;23.332;2023-06-26T01:41:47;17.05;;;9.88;;
23175;SDS011;19910;42.652;23.332;2023-06-26T01:44:17;13.60;;;9.68;;
23175;SDS011;19910;42.652;23.332;2023-06-26T01:46:54;18.45;;;9.50;;
23175;SDS011;19910;42.652;23.332;2023-06-26T01:49:29;15.98;;;10.75;;
23175;SDS011;19910;42.652;23.332;2023-06-26T01:52:06;14.55;;;10.40;;
23175;SDS011;19910;42.652;23.332;2023-06-26T01:54:37;18.80;;;10.30;;
23175;SDS011;19910;42.652;23.332;2023-06-26T01:57:15;14.20;;;10.50;;
23175;SDS011;19910;42.652;23.332;2023-06-26T01:59:46;14.35;;;8.93;;
23175;SDS011;19910;42.652;23.332;2023-06-26T02:02:13;13.93;;;9.88;;
23175;SDS011;19910;42.652;23.332;2023-06-26T02:04:40;16.13;;;9.93;;
23175;SDS011;19910;42.652;23.332;2023-06-26T02:07:07;17.38;;;10.75;;
23175;SDS011;19910;42.652;23.332;2023-06-26T02:09:35;16.02;;;10.23;;
23175;SDS011;19910;42.652;23.332;2023-06-26T02:12:02;16.05;;;10.30;;
23175;SDS011;19910;42.652;23.332;2023-06-26T02:14:29;16.10;;;10.93;;
23175;SDS011;19910;42.652;23.332;2023-06-26T02:16:57;16.00;;;10.45;;
23175;SDS011;19910;42.652;23.332;2023-06-26T02:19:25;15.88;;;11.30;;
23175;SDS011;19910;42.652;23.332;2023-06-26T02:21:53;14.52;;;9.15;;
23175;SDS011;19910;42.652;23.332;2023-06-26T02:24:20;16.83;;;9.98;;
23175;SDS011;19910;42.652;23.332;2023-06-26T02:26:47;15.38;;;10.98;;
23175;SDS011;19910;42.652;23.332;2023-06-26T02:29:14;15.13;;;10.82;;
23175;SDS011;19910;42.652;23.332;2023-06-26T02:31:41;17.40;;;12.27;;
23175;SDS011;19910;42.652;23.332;2023-06-26T02:34:09;16.92;;;10.73;;
23175;SDS011;19910;42.652;23.332;2023-06-26T02:36:36;18.20;;;11.23;;
23175;SDS011;19910;42.652;23.332;2023-06-26T02:39:03;17.10;;;11.35;;
23175;SDS011;19910;42.652;23.332;2023-06-26T02:41:29;19.98;;;10.57;;
23175;SDS011;19910;42.652;23.332;2023-06-26T02:43:56;20.67;;;12.00;;
23175;SDS011;19910;42.652;23.332;2023-06-26T02:46:23;17.63;;;11.98;;
23175;SDS011;19910;42.652;23.332;2023-06-26T02:48:50;18.80;;;12.30;;
23175;SDS011;19910;42.652;23.332;2023-06-26T02:51:18;16.50;;;12.02;;
23175;SDS011;19910;42.652;23.332;2023-06-26T02:53:45;18.08;;;12.27;;
23175;SDS011;19910;42.652;23.332;2023-06-26T02:56:12;16.98;;;12.02;;
23175;SDS011;19910;42.652;23.332;2023-06-26T02:58:38;17.52;;;11.45;;
23175;SDS011;19910;42.652;23.332;2023-06-26T03:01:05;16.23;;;12.00;;
23175;SDS011;19910;42.652;23.332;2023-06-26T03:03:32;18.08;;;12.38;;
23175;SDS011;19910;42.652;23.332;2023-06-26T03:06:05;18.23;;;12.77;;
23175;SDS011;19910;42.652;23.332;2023-06-26T03:08:35;20.23;;;12.63;;
23175;SDS011;19910;42.652;23.332;2023-06-26T03:11:03;18.77;;;12.30;;
23175;SDS011;19910;42.652;23.332;2023-06-26T03:13:30;19.13;;;13.27;;
23175;SDS011;19910;42.652;23.332;2023-06-26T03:15:58;21.48;;;12.93;;
23175;SDS011;19910;42.652;23.332;2023-06-26T03:18:25;21.42;;;12.63;;
23175;SDS011;19910;42.652;23.332;2023-06-26T03:20:51;20.00;;;13.27;;
23175;SDS011;19910;42.652;23.332;2023-06-26T03:23:20;17.52;;;11.70;;
23175;SDS011;19910;42.652;23.332;2023-06-26T03:25:48;14.90;;;11.10;;
23175;SDS011;19910;42.652;23.332;2023-06-26T03:28:15;15.68;;;11.55;;
23175;SDS011;19910;42.652;23.332;2023-06-26T03:30:42;16.98;;;11.88;;
23175;SDS011;19910;42.652;23.332;2023-06-26T03:33:10;17.30;;;12.73;;
23175;SDS011;19910;42.652;23.332;2023-06-26T03:35:37;17.70;;;12.38;;
23175;SDS011;19910;42.652;23.332;2023-06-26T03:38:04;20.77;;;12.65;;
23175;SDS011;19910;42.652;23.332;2023-06-26T03:40:31;16.80;;;11.82;;
23175;SDS011;19910;42.652;23.332;2023-06-26T03:42:59;18.73;;;12.43;;
23175;SDS011;19910;42.652;23.332;2023-06-26T03:45:26;18.77;;;13.35;;
23175;SDS011;19910;42.652;23.332;2023-06-26T03:47:52;19.00;;;13.77;;
23175;SDS011;19910;42.652;23.332;2023-06-26T03:50:19;19.23;;;12.77;;
23175;SDS011;19910;42.652;23.332;2023-06-26T03:52:46;18.45;;;13.35;;
23175;SDS011;19910;42.652;23.332;2023-06-26T03:55:13;17.88;;;13.32;;
23175;SDS011;19910;42.652;23.332;2023-06-26T03:57:39;17.17;;;10.75;;
23175;SDS011;19910;42.652;23.332;2023-06-26T04:00:09;17.38;;;11.80;;
23175;SDS011;19910;42.652;23.332;2023-06-26T04:02:38;19.77;;;12.88;;
23175;SDS011;19910;42.652;23.332;2023-06-26T04:05:05;17.63;;;12.43;;
23175;SDS011;19910;42.652;23.332;2023-06-26T04:07:32;17.02;;;11.98;;
23175;SDS011;19910;42.652;23.332;2023-06-26T04:09:59;16.23;;;12.32;;
23175;SDS011;19910;42.652;23.332;2023-06-26T04:12:26;17.45;;;11.32;;
23175;SDS011;19910;42.652;23.332;2023-06-26T04:14:53;15.07;;;10.98;;
23175;SDS011;19910;42.652;23.332;2023-06-26T04:17:22;15.98;;;11.18;;
23175;SDS011;19910;42.652;23.332;2023-06-26T04:19:48;16.50;;;12.77;;
23175;SDS011;19910;42.652;23.332;2023-06-26T04:22:15;15.70;;;11.13;;
23175;SDS011;19910;42.652;23.332;2023-06-26T04:24:42;14.13;;;10.85;;
23175;SDS011;19910;42.652;23.332;2023-06-26T04:27:11;15.10;;;13.48;;
23175;SDS011;19910;42.652;23.332;2023-06-26T04:29:38;13.07;;;11.68;;
23175;SDS011;19910;42.652;23.332;2023-06-26T04:32:05;13.35;;;11.75;;
23175;SDS011;19910;42.652;23.332;2023-06-26T04:34:34;13.48;;;9.27;;
23175;SDS011;19910;42.652;23.332;2023-06-26T04:37:01;14.68;;;9.48;;
23175;SDS011;19910;42.652;23.332;2023-06-26T04:39:29;15.32;;;12.30;;
23175;SDS011;19910;42.652;23.332;2023-06-26T04:41:56;14.77;;;12.27;;
23175;SDS011;19910;42.652;23.332;2023-06-26T04:44:23;14.02;;;11.82;;
23175;SDS011;19910;42.652;23.332;2023-06-26T04:46:50;13.00;;;9.85;;
23175;SDS011;19910;42.652;23.332;2023-06-26T04:49:18;14.27;;;10.60;;
23175;SDS011;19910;42.652;23.332;2023-06-26T04:51:48;11.20;;;9.77;;
23175;SDS011;19910;42.652;23.332;2023-06-26T04:54:16;13.48;;;9.45;;
23175;SDS011;19910;42.652;23.332;2023-06-26T04:56:43;13.48;;;11.77;;
23175;SDS011;19910;42.652;23.332;2023-06-26T04:59:12;15.35;;;12.90;;
23175;SDS011;19910;42.652;23.332;2023-06-26T05:01:39;13.93;;;12.27;;
23175;SDS011;19910;42.652;23.332;2023-06-26T05:04:06;14.40;;;10.15;;
23175;SDS011;19910;42.652;23.332;2023-06-26T05:06:33;13.52;;;9.73;;
23175;SDS011;19910;42.652;23.332;2023-06-26T05:09:01;18.55;;;10.75;;
23175;SDS011;19910;42.652;23.332;2023-06-26T05:11:28;14.80;;;12.98;;
23175;SDS011;19910;42.652;23.332;2023-06-26T05:13:55;14.80;;;12.02;;
23175;SDS011;19910;42.652;23.332;2023-06-26T05:16:22;15.32;;;12.43;;
23175;SDS011;19910;42.652;23.332;2023-06-26T05:18:48;15.70;;;10.68;;
23175;SDS011;19910;42.652;23.332;2023-06-26T05:21:15;14.00;;;10.05;;
23175;SDS011;19910;42.652;23.332;2023-06-26T05:23:43;16.55;;;11.15;;
23175;SDS011;19910;42.652;23.332;2023-06-26T05:26:13;15.07;;;9.95;;
23175;SDS011;19910;42.652;23.332;2023-06-26T05:28:40;14.88;;;10.00;;
23175;SDS011;19910;42.652;23.332;2023-06-26T05:31:09;13.02;;;10.32;;
23175;SDS011;19910;42.652;23.332;2023-06-26T05:33:36;14.63;;;10.15;;
23175;SDS011;19910;42.652;23.332;2023-06-26T05:36:05;17.08;;;12.90;;
23175;SDS011;19910;42.652;23.332;2023-06-26T05:38:33;16.98;;;12.88;;
23175;SDS011;19910;42.652;23.332;2023-06-26T05:41:01;14.75;;;12.63;;
23175;SDS011;19910;42.652;23.332;2023-06-26T05:43:29;14.32;;;10.45;;
23175;SDS011;19910;42.652;23.332;2023-06-26T05:45:56;13.57;;;10.38;;
23175;SDS011;19910;42.652;23.332;2023-06-26T05:48:23;15.65;;;10.45;;
23175;SDS011;19910;42.652;23.332;2023-06-26T05:50:50;14.20;;;9.50;;
23175;SDS011;19910;42.652;23.332;2023-06-26T05:53:18;14.20;;;10.93;;
23175;SDS011;19910;42.652;23.332;2023-06-26T05:55:45;15.75;;;13.10;;
23175;SDS011;19910;42.652;23.332;2023-06-26T05:58:12;17.75;;;10.82;;
23175;SDS011;19910;42.652;23.332;2023-06-26T06:00:42;13.43;;;9.48;;
23175;SDS011;19910;42.652;23.332;2023-06-26T06:03:09;13.13;;;10.13;;
23175;SDS011;19910;42.652;23.332;2023-06-26T06:05:36;13.35;;;10.05;;
23175;SDS011;19910;42.652;23.332;2023-06-26T06:08:03;17.23;;;10.48;;
23175;SDS011;19910;42.652;23.332;2023-06-26T06:10:30;12.88;;;9.60;;
23175;SDS011;19910;42.652;23.332;2023-06-26T06:12:57;14.02;;;8.23;;
23175;SDS011;19910;42.652;23.332;2023-06-26T06:15:24;10.20;;;8.85;;
23175;SDS011;19910;42.652;23.332;2023-06-26T06:17:52;10.60;;;8.65;;
23175;SDS011;19910;42.652;23.332;2023-06-26T06:20:19;14.15;;;10.48;;
23175;SDS011;19910;42.652;23.332;2023-06-26T06:22:46;12.05;;;10.57;;
23175;SDS011;19910;42.652;23.332;2023-06-26T06:25:13;13.35;;;10.32;;
23175;SDS011;19910;42.652;23.332;2023-06-26T06:27:40;12.35;;;10.05;;
23175;SDS011;19910;42.652;23.332;2023-06-26T06:30:08;11.48;;;10.07;;
23175;SDS011;19910;42.652;23.332;2023-06-26T06:32:35;15.23;;;10.52;;
23175;SDS011;19910;42.652;23.332;2023-06-26T06:35:04;15.00;;;10.07;;
23175;SDS011;19910;42.652;23.332;2023-06-26T06:37:35;11.55;;;10.32;;
23175;SDS011;19910;42.652;23.332;2023-06-26T06:40:03;11.68;;;9.98;;
23175;SDS011;19910;42.652;23.332;2023-06-26T06:42:31;13.73;;;8.73;;
23175;SDS011;19910;42.652;23.332;2023-06-26T06:44:58;10.75;;;8.48;;
23175;SDS011;19910;42.652;23.332;2023-06-26T06:47:25;11.93;;;10.30;;
23175;SDS011;19910;42.652;23.332;2023-06-26T06:49:52;11.02;;;9.43;;
23175;SDS011;19910;42.652;23.332;2023-06-26T06:52:20;11.70;;;9.50;;
23175;SDS011;19910;42.652;23.332;2023-06-26T06:54:53;11.10;;;9.32;;
23175;SDS011;19910;42.652;23.332;2023-06-26T06:57:20;11.65;;;10.15;;
23175;SDS011;19910;42.652;23.332;2023-06-26T06:59:47;10.32;;;8.88;;
23175;SDS011;19910;42.652;23.332;2023-06-26T07:02:15;9.45;;;8.27;;
23175;SDS011;19910;42.652;23.332;2023-06-26T07:04:46;10.45;;;8.40;;
23175;SDS011;19910;42.652;23.332;2023-06-26T07:07:12;11.20;;;8.65;;
23175;SDS011;19910;42.652;23.332;2023-06-26T07:09:41;8.80;;;7.75;;
23175;SDS011;19910;42.652;23.332;2023-06-26T07:12:08;9.38;;;7.72;;
23175;SDS011;19910;42.652;23.332;2023-06-26T07:14:35;11.18;;;8.82;;
23175;SDS011;19910;42.652;23.332;2023-06-26T07:17:01;10.98;;;7.97;;
23175;SDS011;19910;42.652;23.332;2023-06-26T07:19:28;9.25;;;7.90;;
23175;SDS011;19910;42.652;23.332;2023-06-26T07:21:55;10.43;;;6.53;;
23175;SDS011;19910;42.652;23.332;2023-06-26T07:24:22;7.55;;;6.20;;
23175;SDS011;19910;42.652;23.332;2023-06-26T07:26:50;6.57;;;5.85;;
23175;SDS011;19910;42.652;23.332;2023-06-26T07:29:17;7.53;;;6.30;;
23175;SDS011;19910;42.652;23.332;2023-06-26T07:31:43;8.20;;;6.40;;
23175;SDS011;19910;42.652;23.332;2023-06-26T07:34:10;6.85;;;6.15;;
23175;SDS011;19910;42.652;23.332;2023-06-26T07:36:37;7.10;;;6.13;;
23175;SDS011;19910;42.652;23.332;2023-06-26T07:39:04;8.32;;;6.60;;
23175;SDS011;19910;42.652;23.332;2023-06-26T07:41:33;7.88;;;6.07;;
23175;SDS011;19910;42.652;23.332;2023-06-26T07:44:02;6.53;;;5.82;;
23175;SDS011;19910;42.652;23.332;2023-06-26T07:46:29;8.55;;;6.65;;
23175;SDS011;19910;42.652;23.332;2023-06-26T07:48:55;8.40;;;7.05;;
23175;SDS011;19910;42.652;23.332;2023-06-26T07:51:22;8.10;;;5.93;;
23175;SDS011;19910;42.652;23.332;2023-06-26T07:53:49;7.20;;;6.50;;
23175;SDS011;19910;42.652;23.332;2023-06-26T07:56:15;6.95;;;6.22;;
23175;SDS011;19910;42.652;23.332;2023-06-26T07:58:42;5.03;;;4.50;;
23175;SDS011;19910;42.652;23.332;2023-06-26T08:01:11;6.70;;;5.65;;
23175;SDS011;19910;42.652;23.332;2023-06-26T08:03:37;7.28;;;5.60;;
23175;SDS011;19910;42.652;23.332;2023-06-26T08:06:05;9.13;;;6.40;;
23175;SDS011;19910;42.652;23.332;2023-06-26T08:08:31;7.40;;;5.60;;
23175;SDS011;19910;42.652;23.332;2023-06-26T08:10:58;6.20;;;5.07;;
23175;SDS011;19910;42.652;23.332;2023-06-26T08:13:25;7.25;;;5.55;;
23175;SDS011;19910;42.652;23.332;2023-06-26T08:15:52;7.20;;;5.38;;
23175;SDS011;19910;42.652;23.332;2023-06-26T08:18:20;6.28;;;5.68;;
23175;SDS011;19910;42.652;23.332;2023-06-26T08:20:47;5.50;;;4.68;;
23175;SDS011;19910;42.652;23.332;2023-06-26T08:23:14;6.45;;;5.05;;
23175;SDS011;19910;42.652;23.332;2023-06-26T08:25:41;6.25;;;5.65;;
23175;SDS011;19910;42.652;23.332;2023-06-26T08:28:08;9.18;;;6.03;;
23175;SDS011;19910;42.652;23.332;2023-06-26T08:30:35;7.05;;;5.47;;
23175;SDS011;19910;42.652;23.332;2023-06-26T08:33:01;7.82;;;5.60;;
23175;SDS011;19910;42.652;23.332;2023-06-26T08:35:30;7.93;;;6.47;;
23175;SDS011;19910;42.652;23.332;2023-06-26T08:37:56;7.93;;;6.00;;
23175;SDS011;19910;42.652;23.332;2023-06-26T08:40:23;6.90;;;6.22;;
23175;SDS011;19910;42.652;23.332;2023-06-26T08:42:51;6.93;;;6.18;;
23175;SDS011;19910;42.652;23.332;2023-06-26T08:45:18;6.18;;;5.18;;
23175;SDS011;19910;42.652;23.332;2023-06-26T08:47:46;6.25;;;5.38;;
23175;SDS011;19910;42.652;23.332;2023-06-26T08:50:20;7.88;;;5.93;;
23175;SDS011;19910;42.652;23.332;2023-06-26T08:52:53;6.28;;;5.53;;
23175;SDS011;19910;42.652;23.332;2023-06-26T08:55:23;4.72;;;4.28;;
23175;SDS011;19910;42.652;23.332;2023-06-26T08:57:53;5.18;;;4.57;;
23175;SDS011;19910;42.652;23.332;2023-06-26T09:00:20;8.60;;;4.53;;
23175;SDS011;19910;42.652;23.332;2023-06-26T09:02:47;6.85;;;5.07;;
23175;SDS011;19910;42.652;23.332;2023-06-26T09:05:13;6.68;;;5.10;;
23175;SDS011;19910;42.652;23.332;2023-06-26T09:07:40;6.05;;;4.97;;
23175;SDS011;19910;42.652;23.332;2023-06-26T09:10:11;7.40;;;4.35;;
23175;SDS011;19910;42.652;23.332;2023-06-26T09:12:38;6.78;;;4.90;;
23175;SDS011;19910;42.652;23.332;2023-06-26T09:15:05;6.25;;;5.35;;
23175;SDS011;19910;42.652;23.332;2023-06-26T09:17:33;8.48;;;5.40;;
23175;SDS011;19910;42.652;23.332;2023-06-26T09:20:06;6.82;;;4.90;;
23175;SDS011;19910;42.652;23.332;2023-06-26T09:22:36;6.75;;;5.18;;
23175;SDS011;19910;42.652;23.332;2023-06-26T09:25:04;6.65;;;5.80;;
23175;SDS011;19910;42.652;23.332;2023-06-26T09:27:33;6.97;;;5.13;;
23175;SDS011;19910;42.652;23.332;2023-06-26T09:30:01;5.22;;;4.72;;
23175;SDS011;19910;42.652;23.332;2023-06-26T09:32:28;5.10;;;4.60;;
23175;SDS011;19910;42.652;23.332;2023-06-26T09:34:55;6.07;;;4.70;;
23175;SDS011;19910;42.652;23.332;2023-06-26T09:37:22;7.72;;;4.97;;
23175;SDS011;19910;42.652;23.332;2023-06-26T09:39:50;4.65;;;4.20;;
23175;SDS011;19910;42.652;23.332;2023-06-26T09:42:17;7.38;;;4.95;;
23175;SDS011;19910;42.652;23.332;2023-06-26T09:44:46;9.50;;;5.72;;
23175;SDS011;19910;42.652;23.332;2023-06-26T09:47:15;6.05;;;5.15;;
23175;SDS011;19910;42.652;23.332;2023-06-26T09:49:43;6.20;;;5.35;;
23175;SDS011;19910;42.652;23.332;2023-06-26T09:52:10;6.45;;;5.57;;
23175;SDS011;19910;42.652;23.332;2023-06-26T09:54:41;6.80;;;5.53;;
23175;SDS011;19910;42.652;23.332;2023-06-26T09:57:10;8.90;;;5.45;;
23175;SDS011;19910;42.652;23.332;2023-06-26T09:59:38;6.20;;;4.90;;
23175;SDS011;19910;42.652;23.332;2023-06-26T10:02:07;6.55;;;4.90;;
23175;SDS011;19910;42.652;23.332;2023-06-26T10:04:35;5.85;;;4.80;;
23175;SDS011;19910;42.652;23.332;2023-06-26T10:07:04;6.40;;;5.10;;
23175;SDS011;19910;42.652;23.332;2023-06-26T10:09:32;7.95;;;5.32;;
23175;SDS011;19910;42.652;23.332;2023-06-26T10:12:03;10.32;;;5.22;;
23175;SDS011;19910;42.652;23.332;2023-06-26T10:14:33;7.47;;;5.30;;
23175;SDS011;19910;42.652;23.332;2023-06-26T10:17:03;5.65;;;5.13;;
23175;SDS011;19910;42.652;23.332;2023-06-26T10:19:33;5.55;;;4.70;;
23175;SDS011;19910;42.652;23.332;2023-06-26T10:22:04;7.38;;;4.97;;
23175;SDS011;19910;42.652;23.332;2023-06-26T10:24:32;10.10;;;5.28;;
23175;SDS011;19910;42.652;23.332;2023-06-26T10:27:02;5.25;;;4.38;;
23175;SDS011;19910;42.652;23.332;2023-06-26T10:29:34;7.03;;;4.50;;
23175;SDS011;19910;42.652;23.332;2023-06-26T10:32:03;7.15;;;4.80;;
23175;SDS011;19910;42.652;23.332;2023-06-26T10:34:33;10.35;;;5.13;;
23175;SDS011;19910;42.652;23.332;2023-06-26T10:37:01;6.35;;;4.78;;
23175;SDS011;19910;42.652;23.332;2023-06-26T10:39:32;6.70;;;5.30;;
23175;SDS011;19910;42.652;23.332;2023-06-26T10:42:13;7.57;;;5.00;;
23175;SDS011;19910;42.652;23.332;2023-06-26T10:44:41;5.88;;;5.07;;
23175;SDS011;19910;42.652;23.332;2023-06-26T10:47:09;6.13;;;5.15;;
23175;SDS011;19910;42.652;23.332;2023-06-26T10:49:38;7.28;;;4.85;;
23175;SDS011;19910;42.652;23.332;2023-06-26T10:52:05;6.57;;;4.68;;
23175;SDS011;19910;42.652;23.332;2023-06-26T10:54:33;8.02;;;5.32;;
23175;SDS011;19910;42.652;23.332;2023-06-26T10:57:00;9.02;;;5.43;;
23175;SDS011;19910;42.652;23.332;2023-06-26T10:59:28;7.28;;;5.43;;
23175;SDS011;19910;42.652;23.332;2023-06-26T11:01:57;8.25;;;5.20;;
23175;SDS011;19910;42.652;23.332;2023-06-26T11:07:15;8.02;;;5.47;;
23175;SDS011;19910;42.652;23.332;2023-06-26T11:09:55;9.50;;;6.03;;
23175;SDS011;19910;42.652;23.332;2023-06-26T11:12:35;5.80;;;5.20;;
23175;SDS011;19910;42.652;23.332;2023-06-26T11:15:08;7.70;;;5.22;;
23175;SDS011;19910;42.652;23.332;2023-06-26T11:17:37;9.68;;;4.85;;
23175;SDS011;19910;42.652;23.332;2023-06-26T11:20:06;6.40;;;4.82;;
23175;SDS011;19910;42.652;23.332;2023-06-26T11:22:35;5.93;;;4.68;;
23175;SDS011;19910;42.652;23.332;2023-06-26T11:25:04;6.53;;;5.05;;
23175;SDS011;19910;42.652;23.332;2023-06-26T11:27:32;7.30;;;5.68;;
23175;SDS011;19910;42.652;23.332;2023-06-26T11:29:59;7.20;;;5.35;;
23175;SDS011;19910;42.652;23.332;2023-06-26T11:32:26;6.70;;;4.60;;
23175;SDS011;19910;42.652;23.332;2023-06-26T11:34:54;8.38;;;5.75;;
23175;SDS011;19910;42.652;23.332;2023-06-26T11:37:22;8.13;;;5.13;;
23175;SDS011;19910;42.652;23.332;2023-06-26T11:39:50;6.93;;;5.10;;
23175;SDS011;19910;42.652;23.332;2023-06-26T11:42:17;5.22;;;4.57;;
23175;SDS011;19910;42.652;23.332;2023-06-26T11:44:44;8.00;;;5.25;;
23175;SDS011;19910;42.652;23.332;2023-06-26T11:47:14;8.25;;;5.38;;
23175;SDS011;19910;42.652;23.332;2023-06-26T11:49:42;7.13;;;5.20;;
23175;SDS011;19910;42.652;23.332;2023-06-26T11:52:09;8.73;;;5.43;;
23175;SDS011;19910;42.652;23.332;2023-06-26T11:54:38;5.22;;;4.18;;
23175;SDS011;19910;42.652;23.332;2023-06-26T11:57:05;5.47;;;4.97;;
23175;SDS011;19910;42.652;23.332;2023-06-26T11:59:33;7.50;;;5.22;;
23175;SDS011;19910;42.652;23.332;2023-06-26T12:02:04;7.40;;;5.32;;
23175;SDS011;19910;42.652;23.332;2023-06-26T12:04:32;6.05;;;5.43;;
23175;SDS011;19910;42.652;23.332;2023-06-26T12:07:00;7.90;;;5.05;;
23175;SDS011;19910;42.652;23.332;2023-06-26T12:09:29;12.20;;;5.78;;
23175;SDS011;19910;42.652;23.332;2023-06-26T12:11:59;9.52;;;5.30;;
23175;SDS011;19910;42.652;23.332;2023-06-26T12:14:27;9.75;;;5.70;;
23175;SDS011;19910;42.652;23.332;2023-06-26T12:16:54;6.82;;;5.10;;
23175;SDS011;19910;42.652;23.332;2023-06-26T12:19:24;6.25;;;5.30;;
23175;SDS011;19910;42.652;23.332;2023-06-26T12:21:52;8.60;;;6.07;;
23175;SDS011;19910;42.652;23.332;2023-06-26T12:24:22;6.85;;;5.80;;
23175;SDS011;19910;42.652;23.332;2023-06-26T12:26:51;11.63;;;4.38;;
23175;SDS011;19910;42.652;23.332;2023-06-26T12:29:28;7.85;;;5.35;;
23175;SDS011;19910;42.652;23.332;2023-06-26T12:31:58;8.32;;;5.07;;
23175;SDS011;19910;42.652;23.332;2023-06-26T12:34:26;6.45;;;5.03;;
23175;SDS011;19910;42.652;23.332;2023-06-26T12:36:58;6.70;;;4.72;;
23175;SDS011;19910;42.652;23.332;2023-06-26T12:39:26;8.60;;;5.10;;
23175;SDS011;19910;42.652;23.332;2023-06-26T12:41:54;5.50;;;4.90;;
23175;SDS011;19910;42.652;23.332;2023-06-26T12:44:25;5.03;;;4.00;;
23175;SDS011;19910;42.652;23.332;2023-06-26T12:46:54;11.13;;;4.78;;
23175;SDS011;19910;42.652;23.332;2023-06-26T12:49:28;9.80;;;5.28;;
23175;SDS011;19910;42.652;23.332;2023-06-26T12:51:57;6.47;;;5.22;;
23175;SDS011;19910;42.652;23.332;2023-06-26T12:54:24;6.95;;;5.70;;
23175;SDS011;19910;42.652;23.332;2023-06-26T12:56:50;7.50;;;6.00;;
23175;SDS011;19910;42.652;23.332;2023-06-26T12:59:17;7.28;;;5.82;;
23175;SDS011;19910;42.652;23.332;2023-06-26T13:01:45;11.25;;;5.45;;
23175;SDS011;19910;42.652;23.332;2023-06-26T13:04:12;6.97;;;5.28;;
23175;SDS011;19910;42.652;23.332;2023-06-26T13:06:39;6.53;;;5.55;;
23175;SDS011;19910;42.652;23.332;2023-06-26T13:09:06;7.53;;;5.50;;
23175;SDS011;19910;42.652;23.332;2023-06-26T13:11:33;6.72;;;5.75;;
23175;SDS011;19910;42.652;23.332;2023-06-26T13:14:01;7.13;;;5.57;;
23175;SDS011;19910;42.652;23.332;2023-06-26T13:16:28;7.78;;;5.32;;
23175;SDS011;19910;42.652;23.332;2023-06-26T13:18:57;6.68;;;5.88;;
23175;SDS011;19910;42.652;23.332;2023-06-26T13:21:25;8.02;;;6.05;;
23175;SDS011;19910;42.652;23.332;2023-06-26T13:23:52;8.93;;;5.78;;
23175;SDS011;19910;42.652;23.332;2023-06-26T13:26:19;9.65;;;5.65;;
23175;SDS011;19910;42.652;23.332;2023-06-26T13:28:46;6.68;;;5.68;;
23175;SDS011;19910;42.652;23.332;2023-06-26T13:31:13;6.13;;;5.03;;
23175;SDS011;19910;42.652;23.332;2023-06-26T13:33:40;9.43;;;5.30;;
23175;SDS011;19910;42.652;23.332;2023-06-26T13:36:08;7.88;;;4.07;;
23175;SDS011;19910;42.652;23.332;2023-06-26T13:38:35;5.53;;;4.22;;
23175;SDS011;19910;42.652;23.332;2023-06-26T13:41:02;6.85;;;3.60;;
23175;SDS011;19910;42.652;23.332;2023-06-26T13:43:29;9.38;;;4.72;;
23175;SDS011;19910;42.652;23.332;2023-06-26T13:45:56;7.75;;;5.35;;
23175;SDS011;19910;42.652;23.332;2023-06-26T13:48:23;6.22;;;4.75;;
23175;SDS011;19910;42.652;23.332;2023-06-26T13:50:51;6.28;;;5.20;;
23175;SDS011;19910;42.652;23.332;2023-06-26T13:53:19;8.75;;;5.15;;
23175;SDS011;19910;42.652;23.332;2023-06-26T13:55:46;4.47;;;3.40;;
23175;SDS011;19910;42.652;23.332;2023-06-26T13:58:13;9.90;;;5.22;;
23175;SDS011;19910;42.652;23.332;2023-06-26T14:00:40;6.50;;;5.35;;
23175;SDS011;19910;42.652;23.332;2023-06-26T14:03:09;6.65;;;4.68;;
23175;SDS011;19910;42.652;23.332;2023-06-26T14:05:37;6.43;;;4.88;;
23175;SDS011;19910;42.652;23.332;2023-06-26T14:08:04;7.07;;;5.68;;
23175;SDS011;19910;42.652;23.332;2023-06-26T14:10:34;7.63;;;5.55;;
23175;SDS011;19910;42.652;23.332;2023-06-26T14:13:01;11.02;;;6.15;;
23175;SDS011;19910;42.652;23.332;2023-06-26T14:15:29;8.98;;;5.97;;
23175;SDS011;19910;42.652;23.332;2023-06-26T14:17:56;6.35;;;5.57;;
23175;SDS011;19910;42.652;23.332;2023-06-26T14:20:23;5.75;;;5.13;;
23175;SDS011;19910;42.652;23.332;2023-06-26T14:22:50;7.05;;;5.53;;
23175;SDS011;19910;42.652;23.332;2023-06-26T14:25:17;6.95;;;5.90;;
23175;SDS011;19910;42.652;23.332;2023-06-26T14:27:45;8.02;;;5.80;;
23175;SDS011;19910;42.652;23.332;2023-06-26T14:30:12;6.53;;;5.00;;